createdAt,value
2019-04-29T00:04:47.767Z,101798.86
2019-04-29T00:07:16.100Z,101793.70
2019-04-29T00:09:44.442Z,101797.23
2019-04-29T00:12:12.904Z,101786.27
2019-04-29T00:17:39.415Z,101786.50
2019-04-29T00:22:46.647Z,101784.88
2019-04-29T00:25:14.919Z,101779.49
2019-04-29T00:27:43.208Z,101785.96
2019-04-29T00:32:50.522Z,101781.79
2019-04-29T00:35:18.797Z,101782.72
2019-04-29T00:38:06.247Z,101779.84
2019-04-29T00:40:53.627Z,101775.32
2019-04-29T00:43:41.020Z,101774.05
2019-04-29T00:48:48.337Z,101764.12
2019-04-29T00:51:16.620Z,101763.73
2019-04-29T00:53:45.861Z,101780.80
2019-04-29T00:56:14.141Z,101775.33
2019-04-29T00:58:42.416Z,101776.45
2019-04-29T01:01:50.731Z,101774.00
2019-04-29T01:04:18.996Z,101770.79
2019-04-29T01:06:47.274Z,101771.48
2019-04-29T01:12:44.571Z,101774.80
2019-04-29T01:15:12.841Z,101773.77
2019-04-29T01:17:41.120Z,101774.92
2019-04-29T01:20:49.426Z,101774.59
2019-04-29T01:23:17.704Z,101771.69
2019-04-29T01:28:44.050Z,101766.06
2019-04-29T01:39:19.219Z,101752.43
2019-04-29T01:42:06.582Z,101755.41
2019-04-29T01:47:23.881Z,101755.92
2019-04-29T01:49:52.159Z,101747.92
2019-04-29T01:52:20.444Z,101746.59
2019-04-29T01:55:28.737Z,101748.78
2019-04-29T01:57:57.014Z,101750.90
2019-04-29T02:00:25.275Z,101748.60
2019-04-29T02:02:53.556Z,101745.73
2019-04-29T02:05:21.853Z,101732.54
2019-04-29T02:07:50.119Z,101735.73
2019-04-29T02:13:07.339Z,101738.30
2019-04-29T02:15:35.622Z,101736.59
2019-04-29T02:18:03.901Z,101731.39
2019-04-29T02:20:32.191Z,101733.05
2019-04-29T02:28:28.378Z,101729.14
2019-04-29T02:31:36.677Z,101728.92
2019-04-29T02:34:38.993Z,101731.08
2019-04-29T02:40:05.367Z,101724.30
2019-04-29T02:43:13.684Z,101725.17
2019-04-29T02:45:41.948Z,101726.73
2019-04-29T02:48:10.226Z,101726.58
2019-04-29T02:50:38.502Z,101727.28
2019-04-29T02:53:06.791Z,101729.30
2019-04-29T02:58:33.119Z,101728.30
2019-04-29T03:01:20.522Z,101726.55
2019-04-29T03:06:37.743Z,101725.77
2019-04-29T03:09:46.049Z,101724.75
2019-04-29T03:12:14.502Z,101723.45
2019-04-29T03:14:42.923Z,101725.98
2019-04-29T03:17:11.194Z,101724.89
2019-04-29T03:22:28.506Z,101722.73
2019-04-29T03:24:56.771Z,101733.40
2019-04-29T03:27:25.053Z,101733.61
2019-04-29T03:29:53.328Z,101732.42
2019-04-29T03:32:21.599Z,101731.25
2019-04-29T03:34:49.889Z,101720.38
2019-04-29T03:37:18.168Z,101717.73
2019-04-29T03:39:46.436Z,101720.59
2019-04-29T03:42:14.724Z,101725.95
2019-04-29T03:44:43.001Z,101723.02
2019-04-29T03:47:11.270Z,101720.79
2019-04-29T03:49:39.537Z,101715.70
2019-04-29T03:52:07.812Z,101713.70
2019-04-29T03:54:36.082Z,101712.61
2019-04-29T04:00:25.303Z,101719.31
2019-04-29T04:03:12.653Z,101728.81
2019-04-29T04:06:00.051Z,101728.56
2019-04-29T04:11:07.291Z,101740.90
2019-04-29T04:13:35.564Z,101739.27
2019-04-29T04:18:42.857Z,101747.31
2019-04-29T04:21:11.138Z,101744.22
2019-04-29T04:23:39.509Z,101751.77
2019-04-29T04:26:07.771Z,101745.30
2019-04-29T04:28:36.047Z,101745.82
2019-04-29T04:31:07.063Z,101738.78
2019-04-29T04:33:34.327Z,101738.65
2019-04-29T04:36:02.599Z,101740.94
2019-04-29T04:38:30.901Z,101744.42
2019-04-29T04:41:18.275Z,101742.91
2019-04-29T04:43:46.557Z,101745.94
2019-04-29T04:46:14.831Z,101741.18
2019-04-29T04:48:43.122Z,101740.69
2019-04-29T04:51:11.403Z,101739.67
2019-04-29T04:53:40.308Z,101742.28
2019-04-29T04:56:08.609Z,101740.31
2019-04-29T04:58:36.881Z,101738.53
2019-04-29T05:01:05.236Z,101742.63
2019-04-29T05:03:33.519Z,101742.63
2019-04-29T05:06:01.814Z,101744.79
2019-04-29T05:08:30.092Z,101736.31
2019-04-29T05:10:58.363Z,101733.14
2019-04-29T05:13:28.414Z,101740.43
2019-04-29T05:15:56.668Z,101740.69
2019-04-29T05:18:24.943Z,101737.27
2019-04-29T05:20:53.218Z,101727.70
2019-04-29T05:23:21.521Z,101733.20
2019-04-29T05:25:49.794Z,101740.94
2019-04-29T05:28:18.068Z,101737.18
2019-04-29T05:30:46.351Z,101733.94
2019-04-29T05:33:14.615Z,101746.03
2019-04-29T05:38:40.992Z,101738.97
2019-04-29T05:41:09.274Z,101731.84
2019-04-29T05:43:56.668Z,101733.90
2019-04-29T05:49:07.185Z,101732.33
2019-04-29T05:51:53.102Z,101735.39
2019-04-29T05:54:40.524Z,101739.28
2019-04-29T05:57:08.800Z,101748.03
2019-04-29T05:59:37.089Z,101740.28
2019-04-29T06:02:05.377Z,101743.69
2019-04-29T06:04:33.677Z,101742.77
2019-04-29T06:07:01.944Z,101742.55
2019-04-29T06:09:30.221Z,101741.83
2019-04-29T06:11:58.517Z,101747.38
2019-04-29T06:14:26.781Z,101750.88
2019-04-29T06:16:57.728Z,101752.59
2019-04-29T06:19:25.055Z,101748.13
2019-04-29T06:21:53.344Z,101745.39
2019-04-29T06:24:21.625Z,101742.52
2019-04-29T06:26:49.928Z,101741.13
2019-04-29T06:29:18.194Z,101744.09
2019-04-29T06:31:46.481Z,101735.76
2019-04-29T06:34:14.831Z,101745.17
2019-04-29T06:36:43.132Z,101744.12
2019-04-29T06:39:11.417Z,101745.75
2019-04-29T06:41:40.596Z,101760.73
2019-04-29T06:44:16.050Z,101765.58
2019-04-29T06:46:39.762Z,101770.58
2019-04-29T06:49:10.450Z,101779.94
2019-04-29T06:51:38.081Z,101780.43
2019-04-29T06:54:06.378Z,101774.72
2019-04-29T06:56:34.706Z,101772.78
2019-04-29T06:59:02.972Z,101761.77
2019-04-29T07:01:33.173Z,101759.65
2019-04-29T07:04:01.466Z,101760.45
2019-04-29T07:06:30.366Z,101761.81
2019-04-29T07:08:58.647Z,101761.85
2019-04-29T07:11:26.926Z,101749.52
2019-04-29T07:13:57.606Z,101750.47
2019-04-29T07:16:27.289Z,101755.78
2019-04-29T07:19:07.495Z,101770.48
2019-04-29T07:21:35.745Z,101765.44
2019-04-29T07:24:04.164Z,101758.75
2019-04-29T07:26:32.481Z,101755.49
2019-04-29T07:29:00.795Z,101757.80
2019-04-29T07:31:33.515Z,101753.28
2019-04-29T07:33:59.668Z,101765.30
2019-04-29T07:36:40.264Z,101764.44
2019-04-29T07:39:08.591Z,101769.28
2019-04-29T07:41:36.891Z,101769.30
2019-04-29T07:44:05.178Z,101773.70
2019-04-29T07:46:57.923Z,101760.83
2019-04-29T07:49:22.613Z,101772.25
2019-04-29T07:51:50.904Z,101763.32
2019-04-29T07:54:19.204Z,101758.54
2019-04-29T07:56:47.497Z,101755.69
2019-04-29T07:59:38.311Z,101761.00
2019-04-29T08:02:05.149Z,101761.00
2019-04-29T08:04:33.566Z,101762.36
2019-04-29T08:07:01.931Z,101767.05
2019-04-29T08:09:30.210Z,101759.50
2019-04-29T08:12:38.554Z,101763.42
2019-04-29T08:15:42.062Z,101763.76
2019-04-29T08:18:15.623Z,101762.68
2019-04-29T08:20:41.451Z,101769.14
2019-04-29T08:23:10.978Z,101768.49
2019-04-29T08:25:39.248Z,101763.77
2019-04-29T08:28:07.526Z,101770.00
2019-04-29T08:30:35.801Z,101769.09
2019-04-29T08:33:07.610Z,101777.68
2019-04-29T08:35:36.820Z,101775.67
2019-04-29T08:38:04.145Z,101782.59
2019-04-29T08:40:34.267Z,101773.01
2019-04-29T08:46:00.509Z,101776.50
2019-04-29T08:48:28.811Z,101773.59
2019-04-29T08:50:57.088Z,101775.70
2019-04-29T08:53:25.387Z,101773.09
2019-04-29T08:55:53.670Z,101778.06
2019-04-29T08:58:21.959Z,101779.43
2019-04-29T09:00:51.296Z,101777.41
2019-04-29T09:03:23.458Z,101777.06
2019-04-29T09:06:04.431Z,101774.04
2019-04-29T09:08:20.338Z,101775.16
2019-04-29T09:10:48.581Z,101775.77
2019-04-29T09:13:16.877Z,101780.89
2019-04-29T09:15:45.162Z,101774.50
2019-04-29T09:18:13.446Z,101782.64
2019-04-29T09:21:21.738Z,101785.61
2019-04-29T09:23:50.105Z,101774.20
2019-04-29T09:26:37.498Z,101781.04
2019-04-29T09:29:24.903Z,101774.56
2019-04-29T09:31:53.186Z,101780.38
2019-04-29T09:34:24.674Z,101782.48
2019-04-29T09:36:51.514Z,101777.16
2019-04-29T09:39:21.349Z,101782.91
2019-04-29T09:42:13.053Z,101775.22
2019-04-29T09:47:17.904Z,101769.95
2019-04-29T09:49:46.170Z,101767.14
2019-04-29T09:52:14.485Z,101764.90
2019-04-29T09:54:42.756Z,101769.98
2019-04-29T09:57:11.064Z,101766.38
2019-04-29T10:02:34.873Z,101767.73
2019-04-29T10:05:22.287Z,101763.35
2019-04-29T10:07:50.612Z,101755.45
2019-04-29T10:10:18.918Z,101753.05
2019-04-29T10:12:47.178Z,101755.16
2019-04-29T10:21:02.578Z,101741.23
2019-04-29T10:23:30.863Z,101747.04
2019-04-29T10:25:59.222Z,101742.14
2019-04-29T10:28:27.553Z,101737.55
2019-04-29T10:33:34.806Z,101732.18
2019-04-29T10:36:03.123Z,101729.06
2019-04-29T10:38:31.444Z,101724.05
2019-04-29T10:44:07.927Z,101722.09
2019-04-29T10:46:55.965Z,101721.20
2019-04-29T10:52:13.301Z,101725.80
2019-04-29T10:54:41.580Z,101721.31
2019-04-29T10:57:10.528Z,101720.01
2019-04-29T11:05:42.911Z,101717.11
2019-04-29T11:11:23.281Z,101716.14
2019-04-29T11:13:50.650Z,101715.14
2019-04-29T11:16:22.967Z,101710.36
2019-04-29T11:18:49.975Z,101704.39
2019-04-29T11:21:18.249Z,101703.02
2019-04-29T11:24:05.672Z,101703.93
2019-04-29T11:26:53.141Z,101705.02
2019-04-29T11:29:22.147Z,101703.98
2019-04-29T11:39:58.778Z,101707.02
2019-04-29T11:42:27.093Z,101698.67
2019-04-29T11:44:57.165Z,101707.45
2019-04-29T11:47:26.312Z,101710.95
2019-04-29T11:50:14.503Z,101714.73
2019-04-29T11:52:42.888Z,101714.89
2019-04-29T11:55:14.015Z,101707.02
2019-04-29T11:58:00.392Z,101703.02
2019-04-29T12:01:04.091Z,101705.14
2019-04-29T12:04:05.652Z,101704.84
2019-04-29T12:06:34.040Z,101698.22
2019-04-29T12:09:02.341Z,101706.81
2019-04-29T12:11:35.891Z,101704.30
2019-04-29T12:14:19.790Z,101709.48
2019-04-29T12:17:07.257Z,101707.99
2019-04-29T12:19:54.721Z,101702.81
2019-04-29T12:22:30.124Z,101704.57
2019-04-29T12:24:53.048Z,101701.26
2019-04-29T12:27:21.716Z,101700.81
2019-04-29T12:29:54.295Z,101703.98
2019-04-29T12:32:43.362Z,101699.66
2019-04-29T12:35:30.202Z,101699.86
2019-04-29T12:38:17.851Z,101694.58
2019-04-29T12:41:05.381Z,101710.11
2019-04-29T12:46:31.760Z,101703.63
2019-04-29T12:49:03.483Z,101697.98
2019-04-29T12:51:30.123Z,101695.91
2019-04-29T12:53:58.462Z,101694.21
2019-04-29T12:59:15.658Z,101694.62
2019-04-29T13:02:03.412Z,101694.02
2019-04-29T13:04:51.520Z,101699.08
2019-04-29T13:10:17.973Z,101695.19
2019-04-29T13:12:46.290Z,101689.53
2019-04-29T13:15:33.641Z,101689.24
2019-04-29T13:18:23.409Z,101686.05
2019-04-29T13:20:53.749Z,101689.00
2019-04-29T13:23:33.332Z,101688.24
2019-04-29T13:25:55.767Z,101686.98
2019-04-29T13:28:29.773Z,101685.84
2019-04-29T13:30:56.301Z,101682.66
2019-04-29T13:33:21.190Z,101681.04
2019-04-29T13:35:49.734Z,101677.05
2019-04-29T13:38:19.469Z,101674.51
2019-04-29T13:40:47.757Z,101676.88
2019-04-29T13:43:16.036Z,101681.36
2019-04-29T13:46:05.361Z,101669.55
2019-04-29T13:48:55.821Z,101670.95
2019-04-29T13:51:41.650Z,101671.26
2019-04-29T13:56:55.917Z,101661.16
2019-04-29T13:59:42.128Z,101667.57
2019-04-29T14:02:32.222Z,101670.68
2019-04-29T14:07:39.191Z,101669.20
2019-04-29T14:10:46.890Z,101672.31
2019-04-29T14:13:20.468Z,101665.02
2019-04-29T14:15:46.138Z,101664.79
2019-04-29T14:18:14.404Z,101672.38
2019-04-29T14:20:42.688Z,101666.70
2019-04-29T14:23:10.960Z,101674.84
2019-04-29T14:25:39.232Z,101668.75
2019-04-29T14:28:07.509Z,101672.24
2019-04-29T14:30:39.063Z,101676.42
2019-04-29T14:33:05.798Z,101675.70
2019-04-29T14:35:53.183Z,101670.19
2019-04-29T14:38:24.117Z,101671.61
2019-04-29T14:40:51.440Z,101672.78
2019-04-29T14:43:38.826Z,101678.88
2019-04-29T14:46:26.208Z,101668.73
2019-04-29T14:49:13.595Z,101678.88
2019-04-29T14:51:41.877Z,101678.97
2019-04-29T14:54:10.160Z,101680.39
2019-04-29T14:56:38.428Z,101681.36
2019-04-29T14:59:07.639Z,101672.53
2019-04-29T15:07:07.823Z,101685.25
2019-04-29T15:15:13.129Z,101687.23
2019-04-29T15:23:09.320Z,101690.34
2019-04-29T15:25:37.597Z,101677.80
2019-04-29T15:28:05.857Z,101687.75
2019-04-29T15:30:36.822Z,101694.27
2019-04-29T15:33:04.099Z,101691.94
2019-04-29T15:35:32.359Z,101689.39
2019-04-29T15:38:00.681Z,101697.21
2019-04-29T15:40:29.032Z,101698.48
2019-04-29T15:42:57.652Z,101697.30
2019-04-29T15:45:28.019Z,101698.94
2019-04-29T15:47:57.311Z,101706.98
2019-04-29T15:50:25.578Z,101711.06
2019-04-29T15:52:53.855Z,101711.77
2019-04-29T15:55:22.116Z,101708.35
2019-04-29T15:57:52.204Z,101716.02
2019-04-29T16:00:22.477Z,101711.41
2019-04-29T16:02:50.445Z,101710.44
2019-04-29T16:08:29.546Z,101710.38
2019-04-29T16:13:35.821Z,101714.00
2019-04-29T16:16:04.081Z,101712.69
2019-04-29T16:18:32.341Z,101713.61
2019-04-29T16:21:00.616Z,101717.91
2019-04-29T16:23:32.765Z,101724.19
2019-04-29T16:25:58.866Z,101726.34
2019-04-29T16:28:31.623Z,101717.02
2019-04-29T16:30:57.190Z,101717.02
2019-04-29T16:33:25.391Z,101723.05
2019-04-29T16:35:57.672Z,101715.02
2019-04-29T16:38:23.644Z,101713.16
2019-04-29T16:41:12.392Z,101724.47
2019-04-29T16:46:42.583Z,101729.10
2019-04-29T16:51:59.882Z,101730.64
2019-04-29T16:54:28.647Z,101735.05
2019-04-29T16:56:58.138Z,101719.89
2019-04-29T16:59:26.415Z,101736.69
2019-04-29T17:01:54.681Z,101733.97
2019-04-29T17:05:02.978Z,101737.45
2019-04-29T17:07:31.316Z,101731.97
2019-04-29T17:10:18.945Z,101730.53
2019-04-29T17:15:29.739Z,101738.87
2019-04-29T17:17:57.986Z,101746.61
2019-04-29T17:20:26.260Z,101733.41
2019-04-29T17:22:54.575Z,101737.28
2019-04-29T17:28:25.821Z,101741.84
2019-04-29T17:31:31.667Z,101746.03
2019-04-29T17:35:18.696Z,101748.59
2019-04-29T17:36:50.739Z,101748.87
2019-04-29T17:41:57.972Z,101748.81
2019-04-29T17:44:45.358Z,101754.91
2019-04-29T17:47:32.821Z,101759.09
2019-04-29T17:52:40.036Z,101757.66
2019-04-29T17:55:37.631Z,101749.27
2019-04-29T17:58:19.423Z,101754.03
2019-04-29T18:01:05.693Z,101756.27
2019-04-29T18:03:53.097Z,101766.59
2019-04-29T18:06:40.527Z,101762.13
2019-04-29T18:09:27.912Z,101772.75
2019-04-29T18:11:57.843Z,101771.85
2019-04-29T18:14:36.811Z,101772.96
2019-04-29T18:16:56.221Z,101771.60
2019-04-29T18:19:45.198Z,101774.14
2019-04-29T18:22:34.940Z,101778.23
2019-04-29T18:28:12.102Z,101780.66
2019-04-29T18:30:40.372Z,101785.44
2019-04-29T18:33:08.630Z,101790.44
2019-04-29T18:35:36.896Z,101788.28
2019-04-29T18:38:07.563Z,101791.59
2019-04-29T18:40:41.747Z,101792.02
2019-04-29T18:43:05.189Z,101785.53
2019-04-29T18:45:35.052Z,101788.70
2019-04-29T18:48:03.547Z,101793.23
2019-04-29T18:50:50.925Z,101784.96
2019-04-29T18:53:19.183Z,101791.81
2019-04-29T18:55:47.455Z,101788.59
2019-04-29T18:58:16.050Z,101789.41
2019-04-29T19:00:51.984Z,101789.27
2019-04-29T19:08:44.953Z,101786.56
2019-04-29T19:11:15.147Z,101788.30
2019-04-29T19:13:47.480Z,101790.81
2019-04-29T19:16:21.357Z,101791.77
2019-04-29T19:18:45.347Z,101786.34
2019-04-29T19:21:15.481Z,101789.45
2019-04-29T19:23:45.753Z,101780.81
2019-04-29T19:26:13.901Z,101788.53
2019-04-29T19:28:42.149Z,101788.58
2019-04-29T19:31:10.460Z,101791.48
2019-04-29T19:33:39.438Z,101791.03
2019-04-29T19:36:13.105Z,101793.39
2019-04-29T19:38:43.371Z,101794.59
2019-04-29T19:41:11.555Z,101796.09
2019-04-29T19:43:39.370Z,101798.70
2019-04-29T19:46:07.639Z,101794.02
2019-04-29T19:48:36.702Z,101793.65
2019-04-29T19:51:14.270Z,101792.54
2019-04-29T19:53:42.194Z,101789.31
2019-04-29T19:56:06.808Z,101791.23
2019-04-29T19:58:36.272Z,101791.98
2019-04-29T20:01:13.459Z,101792.87
2019-04-29T20:06:29.492Z,101798.22
2019-04-29T20:09:00.787Z,101805.52
2019-04-29T20:11:32.488Z,101801.64
2019-04-29T20:14:05.739Z,101797.84
2019-04-29T20:16:54.673Z,101793.37
2019-04-29T20:19:33.439Z,101804.68
2019-04-29T20:24:49.641Z,101807.95
2019-04-29T20:27:14.651Z,101806.09
2019-04-29T20:29:43.450Z,101803.94
2019-04-29T20:32:13.376Z,101810.90
2019-04-29T20:34:41.865Z,101815.77
2019-04-29T20:37:10.776Z,101811.45
2019-04-29T20:39:40.343Z,101812.80
2019-04-29T20:42:10.286Z,101814.92
2019-04-29T20:44:44.702Z,101813.73
2019-04-29T20:47:19.572Z,101812.77
2019-04-29T20:49:39.837Z,101813.73
2019-04-29T20:55:10.759Z,101815.32
2019-04-29T20:57:39.181Z,101815.32
2019-04-29T21:00:07.792Z,101816.63
2019-04-29T21:02:37.452Z,101815.09
2019-04-29T21:05:48.150Z,101821.62
2019-04-29T21:08:16.218Z,101818.14
2019-04-29T21:10:42.924Z,101814.68
2019-04-29T21:13:29.004Z,101816.13
2019-04-29T21:16:16.410Z,101814.89
2019-04-29T21:18:52.643Z,101812.29
2019-04-29T21:21:15.217Z,101809.52
2019-04-29T21:23:46.031Z,101805.23
2019-04-29T21:26:15.863Z,101807.84
2019-04-29T21:28:46.967Z,101818.97
2019-04-29T21:31:16.604Z,101819.23
2019-04-29T21:33:45.622Z,101824.30
2019-04-29T21:36:33.043Z,101821.93
2019-04-29T21:39:20.450Z,101817.81
2019-04-29T21:44:29.033Z,101816.69
2019-04-29T21:46:59.583Z,101819.41
2019-04-29T21:49:27.697Z,101821.68
2019-04-29T21:51:55.970Z,101819.87
2019-04-29T21:54:24.238Z,101820.30
2019-04-29T21:56:52.526Z,101815.39
2019-04-29T21:59:20.799Z,101819.85
2019-04-29T22:01:49.070Z,101822.39
2019-04-29T22:04:17.414Z,101823.95
2019-04-29T22:06:47.400Z,101828.03
2019-04-29T22:12:23.988Z,101836.13
2019-04-29T22:14:53.982Z,101826.98
2019-04-29T22:17:28.195Z,101832.59
2019-04-29T22:19:52.240Z,101827.55
2019-04-29T22:22:20.511Z,101823.25
2019-04-29T22:24:51.196Z,101824.36
2019-04-29T22:27:18.780Z,101824.02
2019-04-29T22:29:47.506Z,101825.35
2019-04-29T22:32:58.629Z,101824.38
2019-04-29T22:35:27.838Z,101826.41
2019-04-29T22:37:57.058Z,101824.11
2019-04-29T22:40:25.430Z,101825.28
2019-04-29T22:43:14.442Z,101815.65
2019-04-29T22:45:42.735Z,101818.02
2019-04-29T22:48:24.899Z,101816.86
2019-04-29T22:50:53.222Z,101818.11
2019-04-29T22:53:21.487Z,101809.36
2019-04-29T22:55:49.831Z,101808.05
2019-04-29T22:58:18.106Z,101814.15
2019-04-29T23:00:46.379Z,101815.45
2019-04-29T23:03:14.662Z,101815.05
2019-04-29T23:05:42.931Z,101821.94
2019-04-29T23:08:11.206Z,101814.42
2019-04-29T23:10:39.470Z,101810.99
2019-04-29T23:13:07.754Z,101809.89
2019-04-29T23:15:36.026Z,101802.86
2019-04-29T23:21:25.620Z,101800.22
2019-04-29T23:24:16.770Z,101800.36
2019-04-29T23:26:44.810Z,101797.66
2019-04-29T23:29:12.972Z,101794.01
2019-04-29T23:31:41.249Z,101790.89
2019-04-29T23:34:09.525Z,101785.86
2019-04-29T23:36:37.814Z,101787.55
2019-04-29T23:39:39.650Z,101790.47
2019-04-29T23:42:12.107Z,101792.00
2019-04-29T23:44:42.261Z,101790.09
2019-04-29T23:47:10.268Z,101792.53
2019-04-29T23:49:42.716Z,101785.44
2019-04-29T23:52:11.536Z,101788.59
2019-04-29T23:54:44.310Z,101791.09
2019-04-29T23:57:27.332Z,101793.13
